createdAt,value
2022-09-23T00:01:05.472Z,13.47
2022-09-23T00:03:33.300Z,13.46
2022-09-23T00:06:01.329Z,13.49
2022-09-23T00:08:28.746Z,13.43
2022-09-23T00:10:55.820Z,13.45
2022-09-23T00:13:24.841Z,13.32
2022-09-23T00:15:51.725Z,13.33
2022-09-23T00:18:20.468Z,13.35
2022-09-23T00:20:47.265Z,13.30
2022-09-23T00:23:13.949Z,13.27
2022-09-23T00:25:40.448Z,13.24
2022-09-23T00:28:06.945Z,13.23
2022-09-23T00:30:33.664Z,13.13
2022-09-23T00:33:00.228Z,13.18
2022-09-23T00:35:26.836Z,13.17
2022-09-23T00:37:53.379Z,13.12
2022-09-23T00:40:19.969Z,13.11
2022-09-23T00:42:49.170Z,13.08
2022-09-23T00:45:16.116Z,13.12
2022-09-23T00:48:01.649Z,13.11
2022-09-23T00:50:37.646Z,13.04
2022-09-23T00:53:07.977Z,12.97
2022-09-23T00:55:39.084Z,12.95
2022-09-23T00:58:09.664Z,12.90
2022-09-23T01:00:36.210Z,12.90
2022-09-23T01:03:05.091Z,12.84
2022-09-23T01:05:33.494Z,12.86
2022-09-23T01:08:02.682Z,12.85
2022-09-23T01:10:56.893Z,12.81
2022-09-23T01:13:29.412Z,12.84
2022-09-23T01:16:08.345Z,12.83
2022-09-23T01:18:43.479Z,12.76
2022-09-23T01:21:31.527Z,12.86
2022-09-23T01:24:14.944Z,12.82
2022-09-23T01:26:56.727Z,12.70
2022-09-23T01:30:05.541Z,12.79
2022-09-23T01:33:11.129Z,12.79
2022-09-23T01:36:22.004Z,12.79
2022-09-23T01:39:07.929Z,12.63
2022-09-23T01:41:47.130Z,12.61
2022-09-23T01:44:24.221Z,12.53
2022-09-23T01:46:56.641Z,12.54
2022-09-23T01:49:32.453Z,12.48
2022-09-23T01:52:16.141Z,12.49
2022-09-23T01:54:50.609Z,12.40
2022-09-23T01:57:29.401Z,12.43
2022-09-23T02:00:04.302Z,12.33
2022-09-23T02:02:49.205Z,12.33
2022-09-23T02:05:27.356Z,12.31
2022-09-23T02:08:05.868Z,12.32
2022-09-23T02:10:35.968Z,12.30
2022-09-23T02:13:08.616Z,12.27
2022-09-23T02:15:46.481Z,12.33
2022-09-23T02:18:20.376Z,12.38
2022-09-23T02:20:48.948Z,12.34
2022-09-23T02:23:21.135Z,12.30
2022-09-23T02:25:50.529Z,12.30
2022-09-23T02:28:39.623Z,12.29
2022-09-23T02:31:19.810Z,12.26
2022-09-23T02:33:53.024Z,12.22
2022-09-23T02:36:32.996Z,12.23
2022-09-23T02:39:05.900Z,12.14
2022-09-23T02:41:37.739Z,12.10
2022-09-23T02:44:07.561Z,12.43
2022-09-23T02:46:35.177Z,12.11
2022-09-23T02:49:20.179Z,12.10
2022-09-23T02:51:47.019Z,12.02
2022-09-23T02:54:18.193Z,12.01
2022-09-23T02:56:44.836Z,11.99
2022-09-23T02:59:12.478Z,11.97
2022-09-23T03:02:04.973Z,11.94
2022-09-23T03:05:03.729Z,11.99
2022-09-23T03:08:03.869Z,11.95
2022-09-23T03:10:42.673Z,11.91
2022-09-23T03:13:29.466Z,11.80
2022-09-23T03:16:24.674Z,11.90
2022-09-23T03:19:15.277Z,11.75
2022-09-23T03:21:49.260Z,11.76
2022-09-23T03:24:18.256Z,11.74
2022-09-23T03:26:47.879Z,11.74
2022-09-23T03:29:16.773Z,11.69
2022-09-23T03:31:44.755Z,11.61
2022-09-23T03:34:20.280Z,11.69
2022-09-23T03:37:11.227Z,11.66
2022-09-23T03:39:44.293Z,11.57
2022-09-23T03:42:30.960Z,11.62
2022-09-23T03:44:58.344Z,11.46
2022-09-23T03:47:26.817Z,11.43
2022-09-23T03:49:54.264Z,11.36
2022-09-23T03:52:23.539Z,11.28
2022-09-23T03:54:51.973Z,11.24
2022-09-23T03:57:21.947Z,11.27
2022-09-23T03:59:52.361Z,11.26
2022-09-23T04:02:20.546Z,11.20
2022-09-23T04:04:47.211Z,11.15
2022-09-23T04:07:14.668Z,11.14
2022-09-23T04:09:41.385Z,11.19
2022-09-23T04:12:11.704Z,11.15
2022-09-23T04:14:38.228Z,11.13
2022-09-23T04:17:04.736Z,11.16
2022-09-23T04:19:31.209Z,11.12
2022-09-23T04:21:57.721Z,10.89
2022-09-23T04:24:24.467Z,10.98
2022-09-23T04:26:53.315Z,10.93
2022-09-23T04:29:20.732Z,10.90
2022-09-23T04:31:47.945Z,10.89
2022-09-23T04:34:15.879Z,10.88
2022-09-23T04:36:42.862Z,10.89
2022-09-23T04:39:09.336Z,10.88
2022-09-23T04:41:36.023Z,10.81
2022-09-23T04:44:03.082Z,10.79
2022-09-23T04:46:30.009Z,10.81
2022-09-23T04:48:56.844Z,10.84
2022-09-23T04:51:25.396Z,10.79
2022-09-23T04:53:53.741Z,10.82
2022-09-23T04:56:23.492Z,10.77
2022-09-23T04:58:50.747Z,10.78
2022-09-23T05:01:26.759Z,10.76
2022-09-23T05:03:57.761Z,10.78
2022-09-23T05:06:25.042Z,10.81
2022-09-23T05:08:56.143Z,10.79
2022-09-23T05:11:23.741Z,10.82
2022-09-23T05:13:52.884Z,10.82
2022-09-23T05:16:20.706Z,10.78
2022-09-23T05:18:49.053Z,10.81
2022-09-23T05:21:23.979Z,10.83
2022-09-23T05:23:55.455Z,10.80
2022-09-23T05:26:25.224Z,10.82
2022-09-23T05:28:52.379Z,10.83
2022-09-23T05:31:22.222Z,10.79
2022-09-23T05:33:51.975Z,10.75
2022-09-23T05:36:20.503Z,10.72
2022-09-23T05:38:49.213Z,10.78
2022-09-23T05:41:16.437Z,10.78
2022-09-23T05:43:43.289Z,10.76
2022-09-23T05:46:12.735Z,10.78
2022-09-23T05:48:40.777Z,10.75
2022-09-23T05:51:12.725Z,10.79
2022-09-23T05:53:44.822Z,10.81
2022-09-23T05:56:16.974Z,10.85
2022-09-23T05:58:44.101Z,10.85
2022-09-23T06:01:17.964Z,10.83
2022-09-23T06:03:48.931Z,10.85
2022-09-23T06:06:18.042Z,10.82
2022-09-23T06:08:46.032Z,10.84
2022-09-23T06:11:13.605Z,10.85
2022-09-23T06:13:41.098Z,10.84
2022-09-23T06:16:12.842Z,10.85
2022-09-23T06:18:40.194Z,11.09
2022-09-23T06:21:07.764Z,10.86
2022-09-23T06:23:37.516Z,10.86
2022-09-23T06:26:08.757Z,10.87
2022-09-23T06:28:37.826Z,10.86
2022-09-23T06:31:12.953Z,10.72
2022-09-23T06:33:40.267Z,10.83
2022-09-23T06:36:07.765Z,10.84
2022-09-23T06:38:35.028Z,10.89
2022-09-23T06:41:03.066Z,10.92
2022-09-23T06:43:30.060Z,10.92
2022-09-23T06:45:58.440Z,10.95
2022-09-23T06:48:26.201Z,10.96
2022-09-23T06:50:53.801Z,10.90
2022-09-23T06:53:23.593Z,10.94
2022-09-23T06:56:05.500Z,11.03
2022-09-23T06:58:33.491Z,10.93
2022-09-23T07:01:05.043Z,10.98
2022-09-23T07:03:34.316Z,10.95
2022-09-23T07:06:01.155Z,10.98
2022-09-23T07:08:29.318Z,10.89
2022-09-23T07:10:58.205Z,10.95
2022-09-23T07:13:25.697Z,11.04
2022-09-23T07:15:53.689Z,10.98
2022-09-23T07:18:23.739Z,10.97
2022-09-23T07:20:50.749Z,11.07
2022-09-23T07:23:17.823Z,11.11
2022-09-23T07:25:50.223Z,11.15
2022-09-23T07:28:17.103Z,11.21
2022-09-23T07:30:56.159Z,11.17
2022-09-23T07:33:32.329Z,11.20
2022-09-23T07:35:59.450Z,11.19
2022-09-23T07:38:29.803Z,11.23
2022-09-23T07:41:08.812Z,11.28
2022-09-23T07:43:35.658Z,11.25
2022-09-23T07:46:06.955Z,11.24
2022-09-23T07:48:34.848Z,11.26
2022-09-23T07:51:08.099Z,11.31
2022-09-23T07:53:34.720Z,11.41
2022-09-23T07:56:01.540Z,11.46
2022-09-23T07:58:28.075Z,11.48
2022-09-23T08:00:54.562Z,11.56
2022-09-23T08:03:21.290Z,11.60
2022-09-23T08:05:48.118Z,11.64
2022-09-23T08:08:14.777Z,11.66
2022-09-23T08:10:41.287Z,11.68
2022-09-23T08:13:07.780Z,11.72
2022-09-23T08:15:34.372Z,11.75
2022-09-23T08:18:01.471Z,11.76
2022-09-23T08:20:47.757Z,11.80
2022-09-23T08:23:16.143Z,11.81
2022-09-23T08:25:46.857Z,11.82
2022-09-23T08:28:16.682Z,11.90
2022-09-23T08:30:44.429Z,11.92
2022-09-23T08:33:14.144Z,11.97
2022-09-23T08:35:41.044Z,11.94
2022-09-23T08:38:08.184Z,12.06
2022-09-23T08:40:38.980Z,12.10
2022-09-23T08:43:29.901Z,12.12
2022-09-23T08:46:02.505Z,12.14
2022-09-23T08:48:49.523Z,12.21
2022-09-23T08:51:23.636Z,12.24
2022-09-23T08:53:50.314Z,12.29
2022-09-23T08:56:23.229Z,12.33
2022-09-23T08:59:14.714Z,12.34
2022-09-23T09:01:45.202Z,12.43
2022-09-23T09:04:17.732Z,12.50
2022-09-23T09:06:53.099Z,12.53
2022-09-23T09:09:25.336Z,12.63
2022-09-23T09:11:58.836Z,12.66
2022-09-23T09:14:45.968Z,12.72
2022-09-23T09:17:38.287Z,12.82
2022-09-23T09:20:24.575Z,12.88
2022-09-23T09:22:53.159Z,12.97
2022-09-23T09:25:23.975Z,12.96
2022-09-23T09:27:52.045Z,13.03
2022-09-23T09:30:19.493Z,13.12
2022-09-23T09:32:51.920Z,13.15
2022-09-23T09:35:27.264Z,13.39
2022-09-23T09:37:53.796Z,13.42
2022-09-23T09:40:20.757Z,13.48
2022-09-23T09:42:49.561Z,13.56
2022-09-23T09:45:24.186Z,13.60
2022-09-23T09:48:00.355Z,13.69
2022-09-23T09:50:47.176Z,13.65
2022-09-23T09:53:23.765Z,13.72
2022-09-23T09:56:04.396Z,13.78
2022-09-23T09:58:41.539Z,13.80
2022-09-23T10:01:08.355Z,13.97
2022-09-23T10:03:41.375Z,14.12
2022-09-23T10:06:24.312Z,14.01
2022-09-23T10:09:18.955Z,14.07
2022-09-23T10:12:15.383Z,14.10
2022-09-23T10:14:42.750Z,14.15
2022-09-23T10:17:17.687Z,14.20
2022-09-23T10:19:47.438Z,14.26
2022-09-23T10:22:29.828Z,14.40
2022-09-23T10:25:01.430Z,14.40
2022-09-23T10:27:34.501Z,14.54
2022-09-23T10:30:21.495Z,14.48
2022-09-23T10:32:48.895Z,14.63
2022-09-23T10:35:22.416Z,14.74
2022-09-23T10:37:54.127Z,14.75
2022-09-23T10:40:39.381Z,14.72
2022-09-23T10:43:43.414Z,14.82
2022-09-23T10:46:45.844Z,14.90
2022-09-23T10:49:33.037Z,14.99
2022-09-23T10:52:15.949Z,14.99
2022-09-23T10:55:01.403Z,15.01
2022-09-23T10:57:46.438Z,15.11
2022-09-23T11:00:23.004Z,15.21
2022-09-23T11:03:34.265Z,15.17
2022-09-23T11:06:06.472Z,15.23
2022-09-23T11:08:54.256Z,15.36
2022-09-23T11:11:58.532Z,15.39
2022-09-23T11:14:51.452Z,15.47
2022-09-23T11:17:51.054Z,15.49
2022-09-23T11:20:41.261Z,15.58
2022-09-23T11:23:40.574Z,15.55
2022-09-23T11:26:33.250Z,15.62
2022-09-23T11:29:25.259Z,15.64
2022-09-23T11:32:09.173Z,15.78
2022-09-23T11:35:15.080Z,15.76
2022-09-23T11:37:52.842Z,15.80
2022-09-23T11:40:24.128Z,15.88
2022-09-23T11:42:59.711Z,15.90
2022-09-23T11:45:34.466Z,16.01
2022-09-23T11:48:09.627Z,16.04
2022-09-23T11:50:49.964Z,16.04
2022-09-23T11:53:31.393Z,16.11
2022-09-23T11:56:07.280Z,16.28
2022-09-23T11:58:55.842Z,16.27
2022-09-23T12:01:38.062Z,16.34
2022-09-23T12:04:24.104Z,16.37
2022-09-23T12:06:57.828Z,16.38
2022-09-23T12:09:57.162Z,16.41
2022-09-23T12:12:31.510Z,16.49
2022-09-23T12:15:19.944Z,16.45
2022-09-23T12:18:06.363Z,16.51
2022-09-23T12:20:53.713Z,16.59
2022-09-23T12:23:57.635Z,16.62
2022-09-23T12:26:25.402Z,16.59
2022-09-23T12:28:58.854Z,16.62
2022-09-23T12:31:30.543Z,16.67
2022-09-23T12:33:59.028Z,16.65
2022-09-23T12:36:35.941Z,16.64
2022-09-23T12:39:14.944Z,16.70
2022-09-23T12:41:43.675Z,16.65
2022-09-23T12:44:28.806Z,16.77
2022-09-23T12:47:29.913Z,16.73
2022-09-23T12:49:56.612Z,16.78
2022-09-23T12:52:33.331Z,16.83
2022-09-23T12:55:35.323Z,16.83
2022-09-23T12:58:01.663Z,16.85
2022-09-23T13:00:33.517Z,16.87
2022-09-23T13:03:19.879Z,16.94
2022-09-23T13:06:09.858Z,16.97
2022-09-23T13:08:41.600Z,16.96
2022-09-23T13:11:26.135Z,16.97
2022-09-23T13:13:56.853Z,16.94
2022-09-23T13:16:32.329Z,16.96
2022-09-23T13:19:05.390Z,17.01
2022-09-23T13:21:44.753Z,16.99
2022-09-23T13:24:23.171Z,17.00
2022-09-23T13:26:51.137Z,17.03
2022-09-23T13:29:27.012Z,17.06
2022-09-23T13:31:57.789Z,17.05
2022-09-23T13:34:28.811Z,17.04
2022-09-23T13:36:55.301Z,17.07
2022-09-23T13:39:26.673Z,17.06
2022-09-23T13:41:56.361Z,17.04
2022-09-23T13:44:23.573Z,17.04
2022-09-23T13:46:58.066Z,17.03
2022-09-23T13:49:32.387Z,16.99
2022-09-23T13:51:59.653Z,16.97
2022-09-23T13:54:31.985Z,16.98
2022-09-23T13:56:58.865Z,16.96
2022-09-23T13:59:38.084Z,16.96
2022-09-23T14:02:16.817Z,16.97
2022-09-23T14:04:44.365Z,16.99
2022-09-23T14:07:13.277Z,17.02
2022-09-23T14:09:45.446Z,17.04
2022-09-23T14:12:12.261Z,17.02
2022-09-23T14:14:41.102Z,16.98
2022-09-23T14:17:10.265Z,17.02
2022-09-23T14:19:37.174Z,17.00
2022-09-23T14:22:03.670Z,17.02
2022-09-23T14:24:30.103Z,17.02
2022-09-23T14:27:01.452Z,17.04
2022-09-23T14:29:33.985Z,17.09
2022-09-23T14:32:06.518Z,17.09
2022-09-23T14:34:57.595Z,17.09
2022-09-23T14:37:48.842Z,17.14
2022-09-23T14:40:22.396Z,17.15
2022-09-23T14:42:56.852Z,17.15
2022-09-23T14:45:30.476Z,17.13
2022-09-23T14:48:00.879Z,17.14
2022-09-23T14:50:46.975Z,17.15
2022-09-23T14:53:22.740Z,17.13
2022-09-23T14:55:57.224Z,17.14
2022-09-23T14:58:30.335Z,17.17
2022-09-23T15:01:01.302Z,17.20
2022-09-23T15:03:28.691Z,17.17
2022-09-23T15:06:09.026Z,17.19
2022-09-23T15:08:35.872Z,17.21
2022-09-23T15:11:08.071Z,17.19
2022-09-23T15:13:40.270Z,17.12
2022-09-23T15:16:08.190Z,17.19
2022-09-23T15:18:36.857Z,17.20
2022-09-23T15:21:19.273Z,17.24
2022-09-23T15:23:51.548Z,17.17
2022-09-23T15:26:20.191Z,17.15
2022-09-23T15:28:47.806Z,17.14
2022-09-23T15:31:19.340Z,17.08
2022-09-23T15:33:49.647Z,17.29
2022-09-23T15:36:25.822Z,17.18
2022-09-23T15:38:52.963Z,17.21
2022-09-23T15:41:19.443Z,17.15
2022-09-23T15:43:46.901Z,17.15
2022-09-23T15:46:24.634Z,17.19
2022-09-23T15:48:59.054Z,17.15
2022-09-23T15:51:27.328Z,17.20
2022-09-23T15:53:55.177Z,17.19
2022-09-23T15:56:22.694Z,17.12
2022-09-23T15:58:49.523Z,17.13
2022-09-23T16:01:43.226Z,17.15
2022-09-23T16:04:11.717Z,17.11
2022-09-23T16:06:39.565Z,17.08
2022-09-23T16:09:06.111Z,17.05
2022-09-23T16:11:32.769Z,17.02
2022-09-23T16:14:00.597Z,17.03
2022-09-23T16:16:27.995Z,17.01
2022-09-23T16:18:54.720Z,17.00
2022-09-23T16:21:24.813Z,16.93
2022-09-23T16:23:53.352Z,16.87
2022-09-23T16:26:29.529Z,16.93
2022-09-23T16:28:58.043Z,16.90
2022-09-23T16:31:25.764Z,16.95
2022-09-23T16:33:53.449Z,16.92
2022-09-23T16:36:33.348Z,16.92
2022-09-23T16:39:02.713Z,16.90
2022-09-23T16:41:31.465Z,16.93
2022-09-23T16:44:00.486Z,16.92
2022-09-23T16:46:27.752Z,16.86
2022-09-23T16:48:55.529Z,16.87
2022-09-23T16:51:26.358Z,16.87
2022-09-23T16:53:54.195Z,16.89
2022-09-23T16:56:27.441Z,16.88
2022-09-23T16:58:54.934Z,16.90
2022-09-23T17:01:42.866Z,16.86
2022-09-23T17:04:10.553Z,16.88
2022-09-23T17:06:52.224Z,16.88
2022-09-23T17:09:23.280Z,16.81
2022-09-23T17:11:59.206Z,16.73
2022-09-23T17:14:25.873Z,16.78
2022-09-23T17:16:52.344Z,16.73
2022-09-23T17:19:18.845Z,16.75
2022-09-23T17:21:45.321Z,16.70
2022-09-23T17:24:11.824Z,16.70
2022-09-23T17:26:38.286Z,16.68
2022-09-23T17:29:05.587Z,16.69
2022-09-23T17:31:32.323Z,16.66
2022-09-23T17:33:59.013Z,16.65
2022-09-23T17:36:25.521Z,16.61
2022-09-23T17:38:55.375Z,16.61
2022-09-23T17:41:22.009Z,16.54
2022-09-23T17:43:54.561Z,16.61
2022-09-23T17:46:21.151Z,16.61
2022-09-23T17:48:47.688Z,16.61
2022-09-23T17:51:19.725Z,16.62
2022-09-23T17:53:47.756Z,16.56
2022-09-23T17:56:18.324Z,16.58
2022-09-23T17:58:46.104Z,16.56
2022-09-23T18:01:15.828Z,16.51
2022-09-23T18:03:45.447Z,16.53
2022-09-23T18:06:14.733Z,16.53
2022-09-23T18:08:42.968Z,16.50
2022-09-23T18:11:25.415Z,16.45
2022-09-23T18:13:57.480Z,16.44
2022-09-23T18:16:27.272Z,16.43
2022-09-23T18:18:57.132Z,16.41
2022-09-23T18:21:26.100Z,16.45
2022-09-23T18:23:52.589Z,16.45
2022-09-23T18:26:21.433Z,16.43
2022-09-23T18:28:49.009Z,16.40
2022-09-23T18:31:16.320Z,16.40
2022-09-23T18:33:42.840Z,16.40
2022-09-23T18:36:10.109Z,16.39
2022-09-23T18:38:36.597Z,16.37
2022-09-23T18:41:03.196Z,16.29
2022-09-23T18:43:37.461Z,16.18
2022-09-23T18:46:09.495Z,16.20
2022-09-23T18:48:54.573Z,16.20
2022-09-23T18:51:25.361Z,16.09
2022-09-23T18:53:57.415Z,16.06
2022-09-23T18:56:30.944Z,16.01
2022-09-23T18:58:57.523Z,15.93
2022-09-23T19:01:24.593Z,16.01
2022-09-23T19:03:56.050Z,15.98
2022-09-23T19:06:23.296Z,15.89
2022-09-23T19:08:52.289Z,15.84
2022-09-23T19:11:19.501Z,15.76
2022-09-23T19:13:46.340Z,15.70
2022-09-23T19:16:16.558Z,15.75
2022-09-23T19:18:46.267Z,15.78
2022-09-23T19:21:14.105Z,15.70
2022-09-23T19:23:47.543Z,15.77
2022-09-23T19:26:16.791Z,15.75
2022-09-23T19:28:53.892Z,15.79
2022-09-23T19:31:29.883Z,15.87
2022-09-23T19:33:58.203Z,15.89
2022-09-23T19:36:33.125Z,15.87
2022-09-23T19:39:03.024Z,15.87
2022-09-23T19:41:35.239Z,15.92
2022-09-23T19:44:03.040Z,15.89
2022-09-23T19:46:37.819Z,15.90
2022-09-23T19:49:06.483Z,15.86
2022-09-23T19:51:34.551Z,15.84
2022-09-23T19:54:02.249Z,15.76
2022-09-23T19:56:29.845Z,15.82
2022-09-23T19:58:57.509Z,15.81
2022-09-23T20:01:26.196Z,15.81
2022-09-23T20:03:53.289Z,15.79
2022-09-23T20:06:20.292Z,15.76
2022-09-23T20:08:47.810Z,15.72
2022-09-23T20:11:16.911Z,15.74
2022-09-23T20:13:47.028Z,15.78
2022-09-23T20:16:15.561Z,15.77
2022-09-23T20:18:42.871Z,15.78
2022-09-23T20:21:11.738Z,15.77
2022-09-23T20:23:38.353Z,15.71
2022-09-23T20:26:24.375Z,15.62
2022-09-23T20:28:51.165Z,15.72
2022-09-23T20:31:20.694Z,15.59
2022-09-23T20:33:58.192Z,15.66
2022-09-23T20:36:26.064Z,15.61
2022-09-23T20:38:54.192Z,15.62
2022-09-23T20:41:21.114Z,15.61
2022-09-23T20:43:48.198Z,15.49
2022-09-23T20:46:17.546Z,15.42
2022-09-23T20:48:46.467Z,15.47
2022-09-23T20:51:12.937Z,15.47
2022-09-23T20:53:39.433Z,15.57
2022-09-23T20:56:06.182Z,15.39
2022-09-23T20:58:36.501Z,15.37
2022-09-23T21:01:11.010Z,15.36
2022-09-23T21:03:42.174Z,15.34
2022-09-23T21:06:09.666Z,15.31
2022-09-23T21:08:37.501Z,15.37
2022-09-23T21:11:06.752Z,15.23
2022-09-23T21:13:34.133Z,15.21
2022-09-23T21:16:05.283Z,15.30
2022-09-23T21:18:32.195Z,15.31
2022-09-23T21:20:59.760Z,15.27
2022-09-23T21:23:27.911Z,15.30
2022-09-23T21:26:20.124Z,15.23
2022-09-23T21:28:49.404Z,15.22
2022-09-23T21:31:25.855Z,15.17
2022-09-23T21:33:56.499Z,15.11
2022-09-23T21:36:24.504Z,15.29
2022-09-23T21:38:51.993Z,15.11
2022-09-23T21:41:19.154Z,15.19
2022-09-23T21:43:45.692Z,15.11
2022-09-23T21:46:14.522Z,15.06
2022-09-23T21:48:42.237Z,15.11
2022-09-23T21:51:14.355Z,15.05
2022-09-23T21:53:42.026Z,15.00
2022-09-23T21:56:20.739Z,15.00
2022-09-23T21:58:48.385Z,14.96
2022-09-23T22:01:26.413Z,14.80
2022-09-23T22:03:58.397Z,14.91
2022-09-23T22:06:30.467Z,14.89
2022-09-23T22:08:59.691Z,14.94
2022-09-23T22:11:51.526Z,14.82
2022-09-23T22:14:19.667Z,14.91
2022-09-23T22:16:46.377Z,14.77
2022-09-23T22:19:14.950Z,14.72
2022-09-23T22:21:43.882Z,14.85
2022-09-23T22:24:11.685Z,14.75
2022-09-23T22:26:40.481Z,14.85
2022-09-23T22:29:27.967Z,14.79
2022-09-23T22:32:13.212Z,14.89
2022-09-23T22:34:53.197Z,14.67
2022-09-23T22:37:28.405Z,14.64
2022-09-23T22:39:55.205Z,14.69
2022-09-23T22:42:22.322Z,14.69
2022-09-23T22:44:49.373Z,14.66
2022-09-23T22:47:17.525Z,14.72
2022-09-23T22:49:44.056Z,14.65
2022-09-23T22:52:11.188Z,14.72
2022-09-23T22:54:38.420Z,14.76
2022-09-23T22:57:06.521Z,14.69
2022-09-23T22:59:33.160Z,14.71
2022-09-23T23:02:00.169Z,14.74
2022-09-23T23:04:27.485Z,14.66
2022-09-23T23:06:53.968Z,14.68
2022-09-23T23:09:20.448Z,14.68
2022-09-23T23:11:47.348Z,14.67
2022-09-23T23:14:16.590Z,14.70
2022-09-23T23:16:45.123Z,14.70
2022-09-23T23:19:13.964Z,14.65
2022-09-23T23:21:43.367Z,14.65
2022-09-23T23:24:21.800Z,14.62
2022-09-23T23:26:49.098Z,14.54
2022-09-23T23:29:17.317Z,14.63
2022-09-23T23:31:44.044Z,14.58
2022-09-23T23:34:13.232Z,14.58
2022-09-23T23:36:41.433Z,14.49
2022-09-23T23:39:08.356Z,14.55
2022-09-23T23:41:34.910Z,14.48
2022-09-23T23:44:01.747Z,14.42
2022-09-23T23:46:30.626Z,14.41
2022-09-23T23:48:57.902Z,14.44
2022-09-23T23:51:26.345Z,14.24
2022-09-23T23:53:53.913Z,14.38
2022-09-23T23:56:25.033Z,14.31
2022-09-23T23:58:56.850Z,14.22
